Dades meteomassalio
Diari Summary for Marc 16, 2017 Units:  Metric    English   Both
« Previous Day
Next Day »
Diari Semanal Mensual Anual Personalitzat
  Maxima: Minima: Mijana:
Temperatura: 21.1 °C 2.5 °C 11.4 °C
Rosada: 8.8 °C 1.0 °C 4 °C
Humitat: 93 % 27 % 66 %
Velocitat del vent: 27.8 km/h 0.0 km/h 4.7 km/h
Racha vent: 27.8 km/h - -
Vent:- - East
Pressio: 1026.6 hPa 1021.6 hPa -
Pluja: 0.3 mm    
Historical Graphs
 
 
Tabular Data for Marc 16, 2017
Time Temperature Dew Point Pressure Wind Wind Speed Wind Gust Humidity Rainfall Rate (Hourly) solar Conditions
00:03 7.2 °C 5.7 °C 1026.6 hPa Calm     90 % 0.0 mm 0.0 W/m2 RA
00:08 7.1 °C 5.6 °C 1026.6 hPa Calm     90 % 0.0 mm 0.0 W/m2 CLR
00:13 7.1 °C 5.7 °C 1026.6 hPa Calm     91 % 0.0 mm 0.0 W/m2 CLR
00:18 7.1 °C 5.7 °C 1026.6 hPa Calm     91 % 0.0 mm 0.0 W/m2 CLR
00:23 6.9 °C 5.6 °C 1026.6 hPa Calm     91 % 0.0 mm 0.0 W/m2 CLR
00:28 6.9 °C 5.5 °C 1026.6 hPa Calm     91 % 0.0 mm 0.0 W/m2 CLR
00:33 6.8 °C 5.4 °C 1026.6 hPa Calm     91 % 0.0 mm 0.0 W/m2 CLR
00:38 6.7 °C 5.3 °C 1026.6 hPa Calm     91 % 0.0 mm 0.0 W/m2 CLR
00:43 6.6 °C 5.2 °C 1026.6 hPa Calm     91 % 0.0 mm 0.0 W/m2 CLR
00:48 6.4 °C 5.1 °C 1026.6 hPa Calm     91 % 0.0 mm 0.0 W/m2 CLR
00:53 6.3 °C 4.9 °C 1026.6 hPa Calm     91 % 0.0 mm 0.0 W/m2 CLR
00:58 6.3 °C 4.9 °C 1026.3 hPa Calm     91 % 0.0 mm 0.0 W/m2 CLR
01:03 6.2 °C 4.9 °C 1026.3 hPa Calm     91 % 0.0 mm 0.0 W/m2 CLR
01:08 6.1 °C 4.8 °C 1026.3 hPa Calm     91 % 0.0 mm 0.0 W/m2 CLR
01:13 6.1 °C 4.7 °C 1026.3 hPa Calm     91 % 0.0 mm 0.0 W/m2 CLR
01:18 6.0 °C 4.7 °C 1026.3 hPa Calm     91 % 0.0 mm 0.0 W/m2 CLR
01:23 5.9 °C 4.6 °C 1026.3 hPa Calm     91 % 0.0 mm 0.0 W/m2 CLR
01:28 5.8 °C 4.4 °C 1026.3 hPa Calm     91 % 0.0 mm 0.0 W/m2 CLR
01:33 5.7 °C 4.4 °C 1026.3 hPa Calm     91 % 0.0 mm 0.0 W/m2 CLR
01:38 5.7 °C 4.4 °C 1026.3 hPa Calm     92 % 0.0 mm 0.0 W/m2 CLR
01:43 5.6 °C 4.4 °C 1026.3 hPa Calm     92 % 0.0 mm 0.0 W/m2 CLR
01:48 5.6 °C 4.4 °C 1026.3 hPa Calm     92 % 0.0 mm 0.0 W/m2 CLR
01:53 5.6 °C 4.3 °C 1026.3 hPa Calm     92 % 0.0 mm 0.0 W/m2 CLR
01:58 5.6 °C 4.3 °C 1026.3 hPa Calm     92 % 0.0 mm 0.0 W/m2 CLR
02:03 5.4 °C 4.2 °C 1026.3 hPa Calm     92 % 0.0 mm 0.0 W/m2 CLR
02:08 5.3 °C 4.1 °C 1026.0 hPa Calm     92 % 0.0 mm 0.0 W/m2 CLR
02:13 5.2 °C 4.1 °C 1026.3 hPa Calm     92 % 0.0 mm 0.0 W/m2 CLR
02:18 5.2 °C 4.1 °C 1026.3 hPa Calm     92 % 0.0 mm 0.0 W/m2 CLR
02:23 5.1 °C 3.9 °C 1026.0 hPa Calm     92 % 0.0 mm 0.0 W/m2 CLR
02:28 5.1 °C 3.9 °C 1026.0 hPa Calm     92 % 0.0 mm 0.0 W/m2 CLR
02:33 5.0 °C 3.8 °C 1026.3 hPa Calm     92 % 0.0 mm 0.0 W/m2 CLR
02:38 4.9 °C 3.8 °C 1026.3 hPa Calm     92 % 0.0 mm 0.0 W/m2 CLR
02:43 4.9 °C 3.7 °C 1026.3 hPa Calm     92 % 0.0 mm 0.0 W/m2 CLR
02:48 4.8 °C 3.7 °C 1026.0 hPa Calm     92 % 0.0 mm 0.0 W/m2 CLR
02:53 4.8 °C 3.6 °C 1026.3 hPa Calm     92 % 0.0 mm 0.0 W/m2 CLR
02:58 4.7 °C 3.5 °C 1026.0 hPa Calm     92 % 0.0 mm 0.0 W/m2 CLR
03:03 4.6 °C 3.4 °C 1026.0 hPa Calm     92 % 0.0 mm 0.0 W/m2 CLR
03:08 4.6 °C 3.4 °C 1026.0 hPa Calm     92 % 0.0 mm 0.0 W/m2 CLR
03:13 4.6 °C 3.4 °C 1026.0 hPa Calm     92 % 0.0 mm 0.0 W/m2 CLR
03:18 4.4 °C 3.3 °C 1026.0 hPa Calm     92 % 0.0 mm 0.0 W/m2 CLR
03:23 4.3 °C 3.2 °C 1026.0 hPa Calm     92 % 0.0 mm 0.0 W/m2 CLR
03:28 4.2 °C 3.1 °C 1026.0 hPa Calm     92 % 0.0 mm 0.0 W/m2 CLR
03:33 4.2 °C 3.0 °C 1026.0 hPa Calm     92 % 0.0 mm 0.0 W/m2 CLR
03:38 4.1 °C 2.9 °C 1026.0 hPa Calm     92 % 0.0 mm 0.0 W/m2 CLR
03:43 4.1 °C 3.0 °C 1026.0 hPa Calm     93 % 0.0 mm 0.0 W/m2 CLR
03:48 4.1 °C 3.0 °C 1026.0 hPa Calm     93 % 0.0 mm 0.0 W/m2 CLR
03:53 4.0 °C 2.9 °C 1025.6 hPa Calm     93 % 0.0 mm 0.0 W/m2 CLR
03:58 3.9 °C 2.9 °C 1025.6 hPa Calm     93 % 0.0 mm 0.0 W/m2 CLR
04:04 3.9 °C 2.7 °C 1025.6 hPa Calm     92 % 0.0 mm 0.0 W/m2 CLR
04:09 3.8 °C 2.7 °C 1025.6 hPa Calm     92 % 0.0 mm 0.0 W/m2 CLR
04:14 3.8 °C 2.7 °C 1025.6 hPa Calm     93 % 0.0 mm 0.0 W/m2 CLR
04:19 3.7 °C 2.7 °C 1025.6 hPa Calm     93 % 0.0 mm 0.0 W/m2 CLR
04:24 3.7 °C 2.7 °C 1025.6 hPa Calm     93 % 0.0 mm 0.0 W/m2 CLR
04:29 3.7 °C 2.7 °C 1025.6 hPa Calm     93 % 0.0 mm 0.0 W/m2 CLR
04:34 3.6 °C 2.6 °C 1025.6 hPa Calm     93 % 0.0 mm 0.0 W/m2 CLR
04:39 3.6 °C 2.6 °C 1025.6 hPa Calm     93 % 0.0 mm 0.0 W/m2 CLR
04:44 3.6 °C 2.6 °C 1025.6 hPa Calm     93 % 0.0 mm 0.0 W/m2 CLR
04:49 3.6 °C 2.6 °C 1025.6 hPa Calm     93 % 0.0 mm 0.0 W/m2 CLR
04:54 3.4 °C 2.4 °C 1025.6 hPa Calm     93 % 0.0 mm 0.0 W/m2 CLR
04:59 3.3 °C 2.3 °C 1025.6 hPa Calm     93 % 0.0 mm 0.0 W/m2 CLR
05:04 3.3 °C 2.3 °C 1025.6 hPa Calm     93 % 0.0 mm 0.0 W/m2 CLR
05:09 3.3 °C 2.3 °C 1025.6 hPa Calm     93 % 0.0 mm 0.0 W/m2 CLR
05:14 3.3 °C 2.3 °C 1025.6 hPa Calm     93 % 0.0 mm 0.0 W/m2 CLR
05:19 3.3 °C 2.3 °C 1025.6 hPa Calm     93 % 0.0 mm 0.0 W/m2 CLR
05:24 3.3 °C 2.3 °C 1025.6 hPa Calm     93 % 0.0 mm 0.0 W/m2 CLR
05:29 3.2 °C 2.2 °C 1025.6 hPa Calm     93 % 0.0 mm 0.0 W/m2 CLR
05:34 3.2 °C 2.2 °C 1025.6 hPa Calm     93 % 0.0 mm 0.0 W/m2 CLR
05:39 3.2 °C 2.2 °C 1025.6 hPa Calm     93 % 0.0 mm 0.0 W/m2 CLR
05:44 3.1 °C 2.1 °C 1025.6 hPa Calm     93 % 0.0 mm 0.0 W/m2 CLR
05:49 3.1 °C 2.1 °C 1026.0 hPa Calm     93 % 0.0 mm 0.0 W/m2 CLR
05:54 3.1 °C 2.1 °C 1025.6 hPa Calm     93 % 0.0 mm 0.0 W/m2 CLR
05:59 3.2 °C 2.2 °C 1025.6 hPa Calm     93 % 0.0 mm 0.0 W/m2 CLR
06:04 3.2 °C 2.2 °C 1025.6 hPa Calm     93 % 0.0 mm 0.0 W/m2 CLR
06:09 3.2 °C 2.2 °C 1026.0 hPa Calm     93 % 0.0 mm 0.0 W/m2 CLR
06:14 3.1 °C 2.1 °C 1026.0 hPa Calm     93 % 0.0 mm 0.0 W/m2 CLR
06:19 3.1 °C 2.1 °C 1026.0 hPa Calm     93 % 0.3 mm 0.0 W/m2 RA
06:24 3.0 °C 2.0 °C 1026.0 hPa Calm     93 % 0.3 mm 0.0 W/m2 CLR
06:29 2.9 °C 1.9 °C 1026.0 hPa Calm     93 % 0.3 mm 0.0 W/m2 CLR
06:34 2.9 °C 1.9 °C 1026.0 hPa Calm     93 % 0.3 mm 0.0 W/m2 CLR
06:39 2.8 °C 1.8 °C 1026.0 hPa Calm     93 % 0.3 mm 0.0 W/m2 CLR
06:44 2.7 °C 1.7 °C 1026.0 hPa Calm     93 % 0.3 mm 0.0 W/m2 CLR
06:49 2.7 °C 1.7 °C 1026.0 hPa Calm     93 % 0.3 mm 0.0 W/m2 CLR
06:54 2.6 °C 1.6 °C 1026.0 hPa Calm     93 % 0.3 mm 0.0 W/m2 CLR
06:59 2.6 °C 1.6 °C 1026.0 hPa Calm     93 % 0.3 mm 0.0 W/m2 CLR
07:04 2.6 °C 1.6 °C 1026.0 hPa Calm     93 % 0.3 mm 0.0 W/m2 OVC
07:09 2.5 °C 1.5 °C 1026.0 hPa Calm     93 % 0.3 mm 5.0 W/m2 OVC
07:14 2.5 °C 1.5 °C 1026.0 hPa Calm     93 % 0.3 mm 7.0 W/m2 BKN
07:19 2.5 °C 1.5 °C 1026.3 hPa Calm     93 % 0.0 mm 9.0 W/m2 BKN
07:24 2.5 °C 1.5 °C 1026.0 hPa Calm     93 % 0.0 mm 12.0 W/m2 BKN
07:29 2.5 °C 1.5 °C 1026.3 hPa Calm     93 % 0.0 mm 14.0 W/m2 BKN
07:34 2.5 °C 1.5 °C 1026.3 hPa Calm     93 % 0.0 mm 21.0 W/m2 BKN
07:39 2.6 °C 1.6 °C 1026.3 hPa Calm     93 % 0.0 mm 32.0 W/m2 BKN
07:44 2.7 °C 1.7 °C 1026.3 hPa Calm     93 % 0.0 mm 42.0 W/m2 BKN
07:49 2.9 °C 1.9 °C 1026.3 hPa Calm     93 % 0.0 mm 60.0 W/m2 SCT
07:54 3.2 °C 2.2 °C 1026.3 hPa Calm     93 % 0.0 mm 65.0 W/m2 SCT
07:59 3.5 °C 2.5 °C 1026.3 hPa Calm     93 % 0.0 mm 88.0 W/m2 CLR
08:04 3.8 °C 2.7 °C 1026.3 hPa Calm     93 % 0.0 mm 86.0 W/m2 CLR
08:09 4.0 °C 2.9 °C 1026.3 hPa Calm     93 % 0.0 mm 118.0 W/m2 CLR
08:14 4.3 °C 3.3 °C 1026.3 hPa Calm     93 % 0.0 mm 114.0 W/m2 CLR
08:19 4.4 °C 3.3 °C 1026.3 hPa Calm     93 % 0.0 mm 146.0 W/m2 CLR
08:24 4.6 °C 3.5 °C 1026.3 hPa Calm     93 % 0.0 mm 171.0 W/m2 CLR
08:29 5.0 °C 3.9 °C 1026.3 hPa Calm     93 % 0.0 mm 190.0 W/m2 CLR
08:34 5.4 °C 4.4 °C 1026.3 hPa Calm     93 % 0.0 mm 207.0 W/m2 CLR
08:39 5.7 °C 4.7 °C 1026.0 hPa Calm     93 % 0.0 mm 225.0 W/m2 CLR
08:44 6.0 °C 4.8 °C 1026.0 hPa Calm     92 % 0.0 mm 241.0 W/m2 CLR
08:49 6.3 °C 5.1 °C 1026.0 hPa Calm     92 % 0.0 mm 258.0 W/m2 CLR
08:54 6.7 °C 5.5 °C 1026.0 hPa Calm     92 % 0.0 mm 272.0 W/m2 CLR
08:59 7.1 °C 5.7 °C 1026.0 hPa Calm     91 % 0.0 mm 290.0 W/m2 CLR
09:04 7.4 °C 5.8 °C 1026.0 hPa Calm     90 % 0.0 mm 306.0 W/m2 CLR
09:09 7.8 °C 6.3 °C 1026.0 hPa Calm     90 % 0.0 mm 320.0 W/m2 CLR
09:14 8.2 °C 6.5 °C 1026.0 hPa Calm     89 % 0.0 mm 334.0 W/m2 CLR
09:19 8.7 °C 6.8 °C 1026.0 hPa Calm     88 % 0.0 mm 352.0 W/m2 CLR
09:24 9.0 °C 6.6 °C 1025.6 hPa Calm     85 % 0.0 mm 366.0 W/m2 CLR
09:29 9.1 °C 6.2 °C 1026.0 hPa Calm     82 % 0.0 mm 381.0 W/m2 CLR
09:35 9.4 °C 6.5 °C 1025.6 hPa Calm     82 % 0.0 mm 399.0 W/m2 CLR
09:40 9.9 °C 6.6 °C 1025.6 hPa Calm     80 % 0.0 mm 411.0 W/m2 CLR
09:45 10.4 °C 6.9 °C 1025.6 hPa Calm     79 % 0.0 mm 425.0 W/m2 CLR
09:50 10.9 °C 7.4 °C 1025.6 hPa Calm     79 % 0.0 mm 439.0 W/m2 CLR
09:55 11.4 °C 7.3 °C 1025.6 hPa Calm     76 % 0.0 mm 452.0 W/m2 CLR
10:00 11.8 °C 7.3 °C 1025.6 hPa Calm     74 % 0.0 mm 471.0 W/m2 CLR
10:05 12.1 °C 7.4 °C 1025.3 hPa Calm     73 % 0.0 mm 482.0 W/m2 CLR
10:10 12.4 °C 7.6 °C 1025.3 hPa Calm     72 % 0.0 mm 496.0 W/m2 CLR
10:15 12.8 °C 7.7 °C 1025.3 hPa Calm     71 % 0.0 mm 510.0 W/m2 CLR
10:20 13.1 °C 7.9 °C 1025.3 hPa Calm     71 % 0.0 mm 524.0 W/m2 CLR
10:25 13.5 °C 7.7 °C 1025.3 hPa Calm     68 % 0.0 mm 536.0 W/m2 CLR
10:30 13.8 °C 8.2 °C 1025.3 hPa Calm     69 % 0.0 mm 548.0 W/m2 CLR
10:35 14.1 °C 8.5 °C 1025.3 hPa Calm     69 % 0.0 mm 557.0 W/m2 CLR
10:40 14.3 °C 8.5 °C 1025.3 hPa Calm     68 % 0.0 mm 571.0 W/m2 CLR
10:45 14.5 °C 8.4 °C 1025.3 hPa Calm     67 % 0.0 mm 584.0 W/m2 CLR
10:50 14.6 °C 8.3 °C 1025.3 hPa Calm     66 % 0.0 mm 598.0 W/m2 CLR
10:55 14.9 °C 8.6 °C 1025.3 hPa Calm     66 % 0.0 mm 606.0 W/m2 CLR
11:00 15.2 °C 8.8 °C 1025.3 hPa Calm     66 % 0.0 mm 617.0 W/m2 CLR
11:05 15.5 °C 8.2 °C 1024.9 hPa East 4.8 km/h 4.8 km/h 62 % 0.0 mm 628.0 W/m2 CLR
11:10 15.5 °C 8.0 °C 1024.9 hPa ENE 8.0 km/h 8.0 km/h 61 % 0.0 mm 642.0 W/m2 CLR
11:15 15.6 °C 7.1 °C 1024.9 hPa East 5.6 km/h 5.6 km/h 57 % 0.0 mm 647.0 W/m2 CLR
11:20 15.8 °C 7.8 °C 1024.9 hPa ENE 5.6 km/h   59 % 0.0 mm 656.0 W/m2 CLR
11:25 16.1 °C 7.3 °C 1024.9 hPa ENE 3.2 km/h   56 % 0.0 mm 666.0 W/m2 CLR
11:30 16.3 °C 7.2 °C 1024.9 hPa ENE 4.8 km/h 4.8 km/h 55 % 0.0 mm 675.0 W/m2 CLR
11:35 16.4 °C 6.8 °C 1024.9 hPa ENE 9.3 km/h 9.3 km/h 53 % 0.0 mm 682.0 W/m2 CLR
11:40 16.4 °C 6.5 °C 1024.9 hPa ENE 7.4 km/h 7.4 km/h 52 % 0.0 mm 693.0 W/m2 CLR
11:45 16.4 °C 6.5 °C 1024.9 hPa ENE 5.6 km/h 5.6 km/h 52 % 0.0 mm 700.0 W/m2 CLR
11:50 16.5 °C 6.6 °C 1024.6 hPa East 6.4 km/h 6.4 km/h 52 % 0.0 mm 707.0 W/m2 CLR
11:55 16.7 °C 6.5 °C 1024.9 hPa ENE 5.6 km/h 5.6 km/h 51 % 0.0 mm 712.0 W/m2 CLR
12:00 16.9 °C 6.2 °C 1024.6 hPa ENE 5.6 km/h 5.6 km/h 49 % 0.0 mm 717.0 W/m2 CLR
12:05 17.1 °C 6.6 °C 1024.6 hPa ENE 7.4 km/h 7.4 km/h 50 % 0.0 mm 724.0 W/m2 CLR
12:10 17.1 °C 4.1 °C 1024.6 hPa Calm     42 % 0.0 mm 728.0 W/m2 CLR
12:15 17.2 °C 3.8 °C 1024.6 hPa ENE 11.1 km/h 11.1 km/h 41 % 0.0 mm 737.0 W/m2 CLR
12:20 17.3 °C 3.2 °C 1024.6 hPa NE 5.6 km/h 5.6 km/h 39 % 0.0 mm 738.0 W/m2 CLR
12:25 17.6 °C 2.3 °C 1024.3 hPa Calm     36 % 0.0 mm 742.0 W/m2 CLR
12:30 17.7 °C 4.2 °C 1024.3 hPa NNE 7.4 km/h 7.4 km/h 41 % 0.0 mm 733.0 W/m2 CLR
12:35 17.7 °C 4.6 °C 1024.3 hPa ENE 7.4 km/h 7.4 km/h 42 % 0.0 mm 747.0 W/m2 CLR
12:40 17.9 °C 6.8 °C 1024.3 hPa ENE 14.8 km/h 14.8 km/h 48 % 0.0 mm 751.0 W/m2 CLR
12:45 18.1 °C 5.9 °C 1024.3 hPa NE 11.1 km/h 11.1 km/h 45 % 0.0 mm 751.0 W/m2 CLR
12:50 18.1 °C 5.9 °C 1024.3 hPa NE 16.7 km/h 16.7 km/h 45 % 0.0 mm 752.0 W/m2 CLR
12:55 18.1 °C 5.7 °C 1024.3 hPa ENE 9.3 km/h 9.3 km/h 44 % 0.0 mm 754.0 W/m2 CLR
13:00 18.2 °C 5.1 °C 1023.9 hPa ENE 9.3 km/h 9.3 km/h 42 % 0.0 mm 756.0 W/m2 CLR
13:05 18.3 °C 5.5 °C 1023.9 hPa ENE 13.0 km/h 13.0 km/h 43 % 0.0 mm 754.0 W/m2 CLR
13:10 18.5 °C 6.0 °C 1023.9 hPa ENE 7.4 km/h 7.4 km/h 44 % 0.0 mm 756.0 W/m2 CLR
13:15 18.7 °C 5.6 °C 1023.9 hPa NE 11.3 km/h 11.3 km/h 42 % 0.0 mm 712.0 W/m2 CLR
13:20 18.7 °C 5.6 °C 1023.9 hPa NE 5.6 km/h 5.6 km/h 42 % 0.0 mm 754.0 W/m2 CLR
13:25 18.8 °C 5.6 °C 1023.6 hPa NE 13.0 km/h 13.0 km/h 42 % 0.0 mm 752.0 W/m2 CLR
13:30 18.8 °C 5.6 °C 1023.6 hPa ENE 11.3 km/h 11.3 km/h 42 % 0.0 mm 752.0 W/m2 CLR
13:31 18.9 °C 6.1 °C 1023.6 hPa NE 12.9 km/h 12.9 km/h 43 % 0.0 mm 752.0 W/m2 CLR
13:36 19.0 °C 6.4 °C 1023.6 hPa ENE 7.4 km/h 7.4 km/h 44 % 0.0 mm 717.0 W/m2 CLR
13:41 19.2 °C 7.0 °C 1023.6 hPa NE 13.0 km/h 13.0 km/h 45 % 0.0 mm 744.0 W/m2 CLR
13:46 19.4 °C 7.2 °C 1023.2 hPa NE 9.7 km/h 9.7 km/h 45 % 0.0 mm 740.0 W/m2 CLR
13:51 19.5 °C 6.6 °C 1023.2 hPa NE 13.0 km/h 13.0 km/h 43 % 0.0 mm 740.0 W/m2 CLR
13:56 19.6 °C 6.6 °C 1023.2 hPa NE 16.7 km/h 16.7 km/h 43 % 0.0 mm 733.0 W/m2 CLR
14:01 19.7 °C 7.1 °C 1022.9 hPa ENE 13.0 km/h 13.0 km/h 44 % 0.0 mm 728.0 W/m2 CLR
14:06 19.8 °C 7.2 °C 1022.9 hPa NNE 11.1 km/h 11.1 km/h 44 % 0.0 mm 724.0 W/m2 CLR
14:11 19.8 °C 6.6 °C 1022.9 hPa ENE 22.2 km/h 22.2 km/h 42 % 0.0 mm 717.0 W/m2 CLR
14:16 19.9 °C 5.9 °C 1022.9 hPa SE 5.6 km/h   40 % 0.0 mm 707.0 W/m2 CLR
14:21 20.2 °C 6.2 °C 1022.6 hPa Calm     40 % 0.0 mm 705.0 W/m2 CLR
14:26 20.4 °C 6.3 °C 1022.6 hPa ENE 5.6 km/h 5.6 km/h 40 % 0.0 mm 700.0 W/m2 CLR
14:31 20.7 °C 6.9 °C 1022.6 hPa NNE 13.0 km/h 13.0 km/h 41 % 0.0 mm 693.0 W/m2 CLR
14:36 20.6 °C 5.4 °C 1022.6 hPa NE 14.8 km/h 14.8 km/h 37 % 0.0 mm 657.0 W/m2 CLR
14:41 20.6 °C 4.9 °C 1022.6 hPa ENE 9.3 km/h 9.3 km/h 36 % 0.0 mm 679.0 W/m2 CLR
14:46 20.6 °C 6.6 °C 1022.6 hPa NE 11.1 km/h 11.1 km/h 40 % 0.0 mm 671.0 W/m2 CLR
14:51 20.7 °C 5.5 °C 1022.2 hPa SE 7.4 km/h 7.4 km/h 37 % 0.0 mm 663.0 W/m2 CLR
14:56 20.9 °C 4.4 °C 1022.2 hPa ESE 11.1 km/h 11.1 km/h 34 % 0.0 mm 659.0 W/m2 CLR
15:01 20.9 °C 4.0 °C 1022.2 hPa ENE 11.1 km/h 11.1 km/h 33 % 0.0 mm 650.0 W/m2 CLR
15:06 20.9 °C 4.1 °C 1022.2 hPa SE 8.0 km/h 8.0 km/h 33 % 0.0 mm 640.0 W/m2 CLR
15:11 20.9 °C 3.1 °C 1022.2 hPa SSE 16.7 km/h 16.7 km/h 31 % 0.0 mm 631.0 W/m2 CLR
15:16 20.8 °C 3.4 °C 1022.2 hPa ESE 13.0 km/h 13.0 km/h 32 % 0.0 mm 621.0 W/m2 CLR
15:21 20.8 °C 3.9 °C 1021.9 hPa East 6.4 km/h 6.4 km/h 33 % 0.0 mm 610.0 W/m2 CLR
15:26 20.9 °C 3.6 °C 1022.2 hPa East 9.3 km/h 9.3 km/h 32 % 0.0 mm 594.0 W/m2 CLR
15:31 21.1 °C 3.8 °C 1021.9 hPa ENE 16.7 km/h 16.7 km/h 32 % 0.0 mm 585.0 W/m2 CLR
15:36 21.1 °C 3.7 °C 1021.9 hPa ESE 14.8 km/h 14.8 km/h 32 % 0.0 mm 571.0 W/m2 CLR
15:41 21.0 °C 3.2 °C 1021.9 hPa ESE 18.5 km/h 18.5 km/h 31 % 0.0 mm 555.0 W/m2 CLR
15:46 20.9 °C 2.7 °C 1021.9 hPa ESE 20.4 km/h 20.4 km/h 30 % 0.0 mm 548.0 W/m2 CLR
15:51 20.7 °C 2.5 °C 1021.9 hPa ESE 18.5 km/h 18.5 km/h 30 % 0.0 mm 536.0 W/m2 CLR
15:56 20.7 °C 2.9 °C 1021.9 hPa East 13.0 km/h 13.0 km/h 31 % 0.0 mm 522.0 W/m2 CLR
16:01 20.9 °C 3.2 °C 1021.9 hPa East 13.0 km/h 13.0 km/h 31 % 0.0 mm 512.0 W/m2 CLR
16:06 20.9 °C 1.7 °C 1021.6 hPa ESE 24.1 km/h 24.1 km/h 28 % 0.0 mm 501.0 W/m2 CLR
16:11 20.8 °C 1.6 °C 1021.9 hPa ESE 19.3 km/h 19.3 km/h 28 % 0.0 mm 485.0 W/m2 CLR
16:17 20.7 °C 1.1 °C 1021.6 hPa ESE 22.2 km/h 22.2 km/h 27 % 0.0 mm 475.0 W/m2 CLR
16:22 20.8 °C 2.1 °C 1021.6 hPa ESE 22.2 km/h 22.2 km/h 29 % 0.0 mm 461.0 W/m2 CLR
16:27 20.7 °C 2.5 °C 1021.6 hPa ESE 19.3 km/h 19.3 km/h 30 % 0.0 mm 448.0 W/m2 CLR
16:32 20.6 °C 2.4 °C 1021.6 hPa ESE 20.4 km/h 20.4 km/h 30 % 0.0 mm 432.0 W/m2 CLR
16:36 20.6 °C 2.9 °C 1021.6 hPa SE 18.5 km/h 18.5 km/h 31 % 0.0 mm 418.0 W/m2 CLR
16:42 20.5 °C 3.2 °C 1021.6 hPa SE 25.9 km/h 25.9 km/h 32 % 0.0 mm 404.0 W/m2 CLR
16:47 20.4 °C 3.2 °C 1021.6 hPa SE 22.5 km/h 22.5 km/h 32 % 0.0 mm 392.0 W/m2 CLR
16:52 20.4 °C 3.2 °C 1021.6 hPa East 24.1 km/h 24.1 km/h 32 % 0.0 mm 374.0 W/m2 CLR
16:57 20.3 °C 2.6 °C 1021.6 hPa ESE 27.8 km/h 27.8 km/h 31 % 0.0 mm 362.0 W/m2 CLR
17:02 20.2 °C 2.6 °C 1021.6 hPa ESE 22.5 km/h 22.5 km/h 31 % 0.0 mm 345.0 W/m2 CLR
17:07 20.2 °C 3.0 °C 1021.6 hPa ESE 18.5 km/h 18.5 km/h 32 % 0.0 mm 330.0 W/m2 CLR
17:12 20.1 °C 3.3 °C 1021.6 hPa ESE 24.1 km/h 24.1 km/h 33 % 0.0 mm 311.0 W/m2 CLR
17:17 20.0 °C 3.2 °C 1021.6 hPa ESE 14.8 km/h 14.8 km/h 33 % 0.0 mm 297.0 W/m2 CLR
17:18 20.0 °C 3.2 °C 1021.6 hPa SE 22.2 km/h 22.2 km/h 33 % 0.0 mm 294.0 W/m2 CLR
17:23 19.9 °C 2.2 °C 1021.6 hPa ESE 24.1 km/h 24.1 km/h 31 % 0.0 mm 279.0 W/m2 CLR
17:28 19.8 °C 2.7 °C 1021.6 hPa ESE 18.5 km/h 18.5 km/h 32 % 0.0 mm 264.0 W/m2 CLR
17:33 19.8 °C 2.2 °C 1021.6 hPa ESE 20.4 km/h 20.4 km/h 31 % 0.0 mm 248.0 W/m2 CLR
17:38 19.8 °C 2.2 °C 1021.6 hPa SSE 16.7 km/h 16.7 km/h 31 % 0.0 mm 227.0 W/m2 CLR
17:43 19.7 °C 2.6 °C 1021.6 hPa ESE 9.7 km/h 9.7 km/h 32 % 0.0 mm 209.0 W/m2 CLR
17:44 19.7 °C 2.6 °C 1021.6 hPa ESE 16.1 km/h 16.1 km/h 32 % 0.0 mm 204.0 W/m2 CLR
17:49 19.5 °C 1.0 °C 1021.6 hPa ESE 18.5 km/h 18.5 km/h 29 % 0.0 mm 186.0 W/m2 CLR
17:54 19.4 °C 1.3 °C 1021.6 hPa SE 18.5 km/h 18.5 km/h 30 % 0.0 mm 169.0 W/m2 CLR
17:59 19.3 °C 1.8 °C 1021.6 hPa ESE 18.5 km/h 18.5 km/h 31 % 0.0 mm 148.0 W/m2 CLR
18:04 19.2 °C 1.7 °C 1021.6 hPa SE 16.7 km/h 16.7 km/h 31 % 0.0 mm 128.0 W/m2 CLR
18:09 19.1 °C 1.6 °C 1021.6 hPa SE 18.5 km/h 18.5 km/h 31 % 0.0 mm 113.0 W/m2 CLR
18:14 19.1 °C 1.5 °C 1021.6 hPa ESE 13.0 km/h 13.0 km/h 31 % 0.0 mm 97.0 W/m2 CLR
18:19 18.9 °C 1.4 °C 1021.6 hPa ESE 19.3 km/h 19.3 km/h 31 % 0.0 mm 77.0 W/m2 FEW
18:24 18.8 °C 1.3 °C 1021.6 hPa ESE 16.1 km/h 16.1 km/h 31 % 0.0 mm 54.0 W/m2 SCT
18:29 18.7 °C 1.6 °C 1021.6 hPa SE 16.7 km/h 16.7 km/h 32 % 0.0 mm 46.0 W/m2 SCT
18:34 18.5 °C 1.5 °C 1021.6 hPa ESE 9.3 km/h 9.3 km/h 32 % 0.0 mm 37.0 W/m2 BKN
18:39 18.4 °C 1.4 °C 1021.6 hPa Calm     32 % 0.0 mm 26.0 W/m2 BKN
18:44 18.2 °C 1.7 °C 1021.9 hPa Calm     33 % 0.0 mm 16.0 W/m2 BKN
18:49 17.9 °C 1.4 °C 1021.9 hPa SSE 5.6 km/h 5.6 km/h 33 % 0.0 mm 12.0 W/m2 BKN
18:54 17.7 °C 1.7 °C 1021.9 hPa SSE 5.6 km/h 5.6 km/h 34 % 0.0 mm 11.0 W/m2 BKN
18:59 17.6 °C 1.9 °C 1021.9 hPa South 8.0 km/h 8.0 km/h 35 % 0.0 mm 9.0 W/m2 BKN
19:04 17.5 °C 1.8 °C 1021.9 hPa SSE 8.0 km/h 8.0 km/h 35 % 0.0 mm 5.0 W/m2 BKN
19:09 17.3 °C 2.1 °C 1021.9 hPa SSE 9.3 km/h 9.3 km/h 36 % 0.0 mm 0.0 W/m2 OVC
19:14 17.2 °C 1.9 °C 1022.2 hPa SE 11.1 km/h 11.1 km/h 36 % 0.0 mm 0.0 W/m2 OVC
19:19 17.0 °C 2.2 °C 1022.2 hPa SE 11.3 km/h 11.3 km/h 37 % 0.0 mm 0.0 W/m2 CLR
19:24 16.9 °C 2.4 °C 1022.2 hPa SE 7.4 km/h 7.4 km/h 38 % 0.0 mm 0.0 W/m2 CLR
19:29 16.6 °C 2.6 °C 1022.2 hPa SSE 7.4 km/h 7.4 km/h 39 % 0.0 mm 0.0 W/m2 CLR
19:34 16.5 °C 2.8 °C 1022.2 hPa Calm     40 % 0.0 mm 0.0 W/m2 CLR
19:39 16.3 °C 3.3 °C 1022.2 hPa SSE 9.3 km/h 9.3 km/h 42 % 0.0 mm 0.0 W/m2 CLR
19:44 16.2 °C 3.6 °C 1022.2 hPa SSE 11.3 km/h 11.3 km/h 43 % 0.0 mm 0.0 W/m2 CLR
19:49 16.0 °C 3.7 °C 1022.2 hPa SSE 11.3 km/h 11.3 km/h 44 % 0.0 mm 0.0 W/m2 CLR
19:54 15.9 °C 3.9 °C 1022.2 hPa SSE 13.0 km/h 13.0 km/h 45 % 0.0 mm 0.0 W/m2 CLR
19:59 15.8 °C 3.9 °C 1022.2 hPa SE 13.0 km/h 13.0 km/h 45 % 0.0 mm 0.0 W/m2 CLR
20:04 15.6 °C 4.3 °C 1022.2 hPa Calm     47 % 0.0 mm 0.0 W/m2 CLR
20:09 15.2 °C 4.5 °C 1022.6 hPa Calm     49 % 0.0 mm 0.0 W/m2 CLR
20:14 14.7 °C 4.3 °C 1022.6 hPa Calm     50 % 0.0 mm 0.0 W/m2 CLR
20:19 14.2 °C 4.2 °C 1022.6 hPa Calm     51 % 0.0 mm 0.0 W/m2 CLR
20:24 13.9 °C 3.9 °C 1022.6 hPa Calm     51 % 0.0 mm 0.0 W/m2 CLR
20:29 13.7 °C 3.8 °C 1022.6 hPa Calm     51 % 0.0 mm 0.0 W/m2 CLR
20:34 13.6 °C 4.2 °C 1022.6 hPa Calm     53 % 0.0 mm 0.0 W/m2 CLR
20:39 13.3 °C 3.9 °C 1022.6 hPa Calm     53 % 0.0 mm 0.0 W/m2 CLR
20:44 13.0 °C 3.9 °C 1022.6 hPa Calm     54 % 0.0 mm 0.0 W/m2 CLR
20:49 12.8 °C 3.4 °C 1022.9 hPa Calm     53 % 0.0 mm 0.0 W/m2 CLR
20:54 12.7 °C 3.1 °C 1022.9 hPa Calm     52 % 0.0 mm 0.0 W/m2 CLR
20:59 12.7 °C 2.8 °C 1022.9 hPa Calm     51 % 0.0 mm 0.0 W/m2 CLR
21:04 12.7 °C 3.1 °C 1022.9 hPa Calm     52 % 0.0 mm 0.0 W/m2 CLR
21:09 12.6 °C 4.3 °C 1022.9 hPa Calm     57 % 0.0 mm 0.0 W/m2 CLR
21:14 12.2 °C 4.9 °C 1022.9 hPa Calm     61 % 0.0 mm 0.0 W/m2 CLR
21:19 11.7 °C 4.7 °C 1022.9 hPa Calm     62 % 0.0 mm 0.0 W/m2 CLR
21:24 11.1 °C 4.8 °C 1023.2 hPa Calm     65 % 0.0 mm 0.0 W/m2 CLR
21:29 10.7 °C 4.6 °C 1023.2 hPa Calm     66 % 0.0 mm 0.0 W/m2 CLR
21:34 10.3 °C 4.7 °C 1023.2 hPa Calm     68 % 0.0 mm 0.0 W/m2 CLR
21:39 10.0 °C 4.6 °C 1023.2 hPa Calm     69 % 0.0 mm 0.0 W/m2 CLR
21:44 9.8 °C 4.6 °C 1023.2 hPa Calm     70 % 0.0 mm 0.0 W/m2 CLR
21:49 9.6 °C 4.6 °C 1023.2 hPa Calm     71 % 0.0 mm 0.0 W/m2 CLR
21:54 9.3 °C 4.6 °C 1023.6 hPa Calm     72 % 0.0 mm 0.0 W/m2 CLR
21:59 9.1 °C 4.5 °C 1023.6 hPa Calm     73 % 0.0 mm 0.0 W/m2 CLR
22:04 8.8 °C 4.3 °C 1023.6 hPa Calm     73 % 0.0 mm 0.0 W/m2 CLR
22:09 8.7 °C 4.3 °C 1023.6 hPa Calm     74 % 0.0 mm 0.0 W/m2 CLR
22:14 8.6 °C 4.4 °C 1023.6 hPa Calm     75 % 0.0 mm 0.0 W/m2 CLR
22:19 8.4 °C 4.1 °C 1023.6 hPa Calm     74 % 0.0 mm 0.0 W/m2 CLR
22:24 8.4 °C 4.2 °C 1023.6 hPa Calm     75 % 0.0 mm 0.0 W/m2 CLR
22:29 8.3 °C 4.2 °C 1023.6 hPa Calm     75 % 0.0 mm 0.0 W/m2 CLR
22:34 8.2 °C 4.2 °C 1023.6 hPa Calm     76 % 0.0 mm 0.0 W/m2 CLR
22:39 8.0 °C 4.0 °C 1023.6 hPa Calm     76 % 0.0 mm 0.0 W/m2 CLR
22:44 7.8 °C 3.9 °C 1023.6 hPa Calm     76 % 0.0 mm 0.0 W/m2 CLR
22:49 7.8 °C 4.1 °C 1023.6 hPa Calm     77 % 0.0 mm 0.0 W/m2 CLR
22:54 7.8 °C 3.8 °C 1023.6 hPa Calm     76 % 0.0 mm 0.0 W/m2 CLR
22:59 7.7 °C 3.9 °C 1023.6 hPa Calm     77 % 0.0 mm 0.0 W/m2 CLR
23:04 7.6 °C 3.9 °C 1023.6 hPa Calm     78 % 0.0 mm 0.0 W/m2 CLR
23:09 7.5 °C 3.9 °C 1023.6 hPa Calm     78 % 0.0 mm 0.0 W/m2 CLR
23:14 7.4 °C 3.8 °C 1023.6 hPa Calm     78 % 0.0 mm 0.0 W/m2 CLR
23:19 7.3 °C 3.9 °C 1023.6 hPa Calm     79 % 0.0 mm 0.0 W/m2 CLR
23:24 7.2 °C 3.8 °C 1023.6 hPa Calm     79 % 0.0 mm 0.0 W/m2 CLR
23:29 7.0 °C 3.6 °C 1023.6 hPa Calm     79 % 0.0 mm 0.0 W/m2 CLR
23:34 6.9 °C 3.7 °C 1023.6 hPa Calm     80 % 0.0 mm 0.0 W/m2 CLR
23:39 6.8 °C 3.6 °C 1023.6 hPa Calm     80 % 0.0 mm 0.0 W/m2 CLR
23:44 6.7 °C 3.5 °C 1023.6 hPa Calm     80 % 0.0 mm 0.0 W/m2 CLR
23:49 6.7 °C 3.4 °C 1023.6 hPa Calm     80 % 0.0 mm 0.0 W/m2 CLR
23:54 6.6 °C 3.6 °C 1023.6 hPa Calm     81 % 0.0 mm 0.0 W/m2 CLR
23:59 6.5 °C 3.5 °C 1023.6 hPa Calm     81 % 0.0 mm 0.0 W/m2 CLR
Lo Temps de Massalio
Compliments of Weather Underground - 1.25 mb